Terminal Aerodrome Forecast
Issued by NWS

Home | Current Version | Previous Version | Text Only | Print | Product List | Glossary On
Versions: 1 2 3 4 5 6 7 8 9 10 11
197
FTUS43 KICT 212203 AAA
TAFRSL
TAF AMD
KRSL 212203Z 2122/2218 03014KT P6SM VCSH OVC040
     FM220400 01016G23KT P6SM BKN015
     FM220800 36010KT P6SM SCT100=

USA.gov is the U.S. government's official web portal to all federal, state and local government web resources and services.